createdAt,value
2017-04-09T00:00:47.742Z,73.97
2017-04-09T00:01:36.221Z,74.16
2017-04-09T00:02:25.311Z,74.54
2017-04-09T00:03:14.214Z,74.64
2017-04-09T00:04:02.789Z,74.54
2017-04-09T00:04:51.134Z,74.16
2017-04-09T00:05:40.087Z,74.54
2017-04-09T00:06:28.587Z,74.07
2017-04-09T00:07:16.827Z,74.07
2017-04-09T00:08:05.410Z,74.26
2017-04-09T00:08:54.305Z,74.45
2017-04-09T00:09:42.688Z,74.26
2017-04-09T00:10:31.581Z,74.35
2017-04-09T00:11:19.921Z,74.35
2017-04-09T00:12:08.578Z,74.73
2017-04-09T00:12:57.235Z,74.64
2017-04-09T00:13:45.828Z,74.83
2017-04-09T00:14:34.393Z,74.73
2017-04-09T00:15:23.528Z,74.45
2017-04-09T00:16:11.946Z,74.83
2017-04-09T00:17:00.428Z,74.83
2017-04-09T00:17:49.153Z,74.83
2017-04-09T00:18:38.082Z,74.83
2017-04-09T00:19:26.587Z,74.83
2017-04-09T00:20:15.183Z,74.83
2017-04-09T00:21:04.050Z,74.92
2017-04-09T00:21:52.562Z,75.02
2017-04-09T00:22:41.166Z,75.02
2017-04-09T00:23:29.345Z,74.83
2017-04-09T00:24:18.657Z,74.83
2017-04-09T00:25:06.893Z,74.92
2017-04-09T00:25:55.707Z,74.83
2017-04-09T00:26:44.689Z,74.54
2017-04-09T00:27:33.255Z,74.54
2017-04-09T00:28:21.522Z,74.64
2017-04-09T00:29:10.601Z,74.73
2017-04-09T00:29:58.935Z,74.92
2017-04-09T00:30:47.242Z,75.02
2017-04-09T00:31:35.785Z,74.83
2017-04-09T00:32:20.588Z,74.73
2017-04-09T00:33:01.086Z,74.73
2017-04-09T00:33:41.533Z,74.83
2017-04-09T00:34:21.974Z,74.73
2017-04-09T00:35:03.308Z,75.59
2017-04-09T00:35:43.738Z,75.11
2017-04-09T00:36:24.916Z,75.59
2017-04-09T00:37:05.458Z,75.4
2017-04-09T00:37:45.914Z,75.21
2017-04-09T00:38:26.433Z,75.4
2017-04-09T00:39:06.835Z,75.4
2017-04-09T00:39:47.474Z,75.11
2017-04-09T00:40:27.934Z,75.21
2017-04-09T00:41:09.298Z,75.02
2017-04-09T00:41:49.576Z,75.59
2017-04-09T00:42:30.023Z,75.55
2017-04-09T00:43:10.523Z,75.64
2017-04-09T00:43:51.018Z,75.68
2017-04-09T00:44:31.517Z,75.59
2017-04-09T00:45:12.209Z,75.68
2017-04-09T00:45:52.720Z,76.03
2017-04-09T00:46:33.195Z,76.03
2017-04-09T00:47:13.642Z,75.49
2017-04-09T00:47:54.054Z,75.36
2017-04-09T00:48:34.539Z,75.74
2017-04-09T00:49:14.930Z,75.64
2017-04-09T00:49:55.418Z,75.84
2017-04-09T00:50:35.842Z,76.03
2017-04-09T00:51:16.226Z,76.31
2017-04-09T00:51:56.770Z,76.31
2017-04-09T00:52:37.096Z,76.21
2017-04-09T00:53:18.583Z,76.21
2017-04-09T00:53:59.544Z,76.21
2017-04-09T00:54:40.023Z,76.12
2017-04-09T00:55:21.252Z,76.31
2017-04-09T00:56:01.640Z,76.31
2017-04-09T00:56:42.138Z,76.31
2017-04-09T00:57:22.524Z,76.5
2017-04-09T00:58:03.841Z,76.31
2017-04-09T00:58:44.153Z,76.31
2017-04-09T00:59:24.596Z,76.31
2017-04-09T01:00:05.022Z,76.31
2017-04-09T01:00:46.484Z,76.31
2017-04-09T01:01:27.786Z,76.4
2017-04-09T01:02:08.149Z,76.21
2017-04-09T01:02:48.597Z,76.12
2017-04-09T01:03:29.031Z,75.74
2017-04-09T01:04:09.510Z,75.74
2017-04-09T01:04:49.967Z,75.74
2017-04-09T01:05:30.523Z,75.74
2017-04-09T01:06:10.853Z,75.55
2017-04-09T01:06:51.221Z,76.12
2017-04-09T01:07:31.814Z,75.84
2017-04-09T01:08:12.271Z,76.12
2017-04-09T01:08:52.675Z,76.59
2017-04-09T01:09:33.104Z,76.5
2017-04-09T01:10:13.465Z,76.5
2017-04-09T01:10:53.928Z,76.12
2017-04-09T01:11:34.477Z,76.03
2017-04-09T01:12:14.838Z,76.03
2017-04-09T01:12:55.305Z,76.03
2017-04-09T01:13:37.183Z,76.12
2017-04-09T01:14:17.669Z,76.31
2017-04-09T01:14:58.372Z,76.4
2017-04-09T01:15:38.878Z,76.21
2017-04-09T01:16:19.399Z,76.5
2017-04-09T01:17:00.342Z,76.59
2017-04-09T01:17:40.961Z,76.59
2017-04-09T01:18:22.118Z,76.4
2017-04-09T01:19:02.586Z,76.31
2017-04-09T01:19:43.821Z,76.87
2017-04-09T01:20:24.382Z,76.68
2017-04-09T01:21:05.607Z,76.78
2017-04-09T01:21:46.313Z,76.5
2017-04-09T01:22:26.757Z,76.5
2017-04-09T01:23:07.289Z,76.68
2017-04-09T01:23:47.646Z,76.97
2017-04-09T01:24:28.086Z,77.06
2017-04-09T01:25:09.099Z,77.06
2017-04-09T01:25:49.556Z,76.97
2017-04-09T01:26:29.934Z,77.06
2017-04-09T01:27:10.309Z,77.35
2017-04-09T01:27:50.969Z,77.16
2017-04-09T01:28:31.372Z,77.25
2017-04-09T01:29:11.944Z,77.25
2017-04-09T01:29:52.470Z,77.16
2017-04-09T01:30:32.848Z,77.25
2017-04-09T01:31:14.206Z,76.97
2017-04-09T01:31:54.696Z,76.97
2017-04-09T01:32:35.114Z,77.16
2017-04-09T01:33:15.573Z,77.16
2017-04-09T01:33:56.544Z,77.06
2017-04-09T01:34:38.090Z,76.59
2017-04-09T01:35:19.540Z,77.06
2017-04-09T01:36:01.184Z,77.06
2017-04-09T01:36:41.514Z,77.16
2017-04-09T01:37:23.100Z,77.06
2017-04-09T01:38:04.234Z,77.45
2017-04-09T01:38:44.783Z,77.06
2017-04-09T01:39:26.772Z,77.06
2017-04-09T01:40:07.111Z,76.97
2017-04-09T01:40:47.731Z,76.97
2017-04-09T01:41:28.185Z,77.06
2017-04-09T01:42:08.669Z,76.59
2017-04-09T01:42:49.536Z,76.97
2017-04-09T01:43:31.633Z,77.06
2017-04-09T01:44:12.089Z,76.87
2017-04-09T01:44:54.234Z,77.16
2017-04-09T01:45:35.660Z,77.16
2017-04-09T01:46:16.201Z,77.06
2017-04-09T01:46:56.619Z,77.06
2017-04-09T01:47:37.688Z,77.16
2017-04-09T01:48:18.088Z,76.87
2017-04-09T01:48:59.209Z,77.16
2017-04-09T01:49:39.545Z,77.06
2017-04-09T01:50:19.968Z,76.97
2017-04-09T01:51:00.700Z,77.16
2017-04-09T01:51:41.166Z,77.06
2017-04-09T01:52:22.574Z,77.16
2017-04-09T01:53:03.054Z,76.97
2017-04-09T01:53:43.518Z,76.97
2017-04-09T01:54:24.071Z,77.16
2017-04-09T01:55:05.491Z,77.06
2017-04-09T01:55:46.035Z,77.35
2017-04-09T01:56:29.208Z,77.25
2017-04-09T01:57:09.627Z,76.93
2017-04-09T01:57:50.390Z,77.03
2017-04-09T01:58:33.345Z,77.03
2017-04-09T01:59:13.754Z,77.12
2017-04-09T01:59:54.844Z,77.4
2017-04-09T02:00:35.221Z,77.12
2017-04-09T02:01:16.819Z,77.06
2017-04-09T02:01:58.216Z,77.22
2017-04-09T02:02:38.719Z,77.78
2017-04-09T02:03:19.133Z,77.4
2017-04-09T02:03:59.598Z,77.59
2017-04-09T02:04:40.019Z,77.4
2017-04-09T02:05:20.759Z,77.59
2017-04-09T02:06:01.380Z,77.59
2017-04-09T02:06:41.803Z,77.59
2017-04-09T02:07:22.267Z,77.4
2017-04-09T02:08:02.693Z,77.5
2017-04-09T02:08:43.126Z,77.73
2017-04-09T02:09:24.207Z,77.64
2017-04-09T02:10:05.224Z,77.54
2017-04-09T02:10:47.126Z,77.59
2017-04-09T02:11:27.516Z,77.45
2017-04-09T02:12:08.116Z,77.59
2017-04-09T02:12:49.054Z,77.5
2017-04-09T02:13:30.499Z,77.78
2017-04-09T02:14:11.669Z,77.4
2017-04-09T02:14:52.188Z,77.69
2017-04-09T02:15:32.512Z,77.59
2017-04-09T02:16:13.171Z,77.59
2017-04-09T02:16:53.558Z,77.59
2017-04-09T02:17:34.213Z,77.59
2017-04-09T02:18:14.714Z,77.5
2017-04-09T02:18:55.183Z,77.31
2017-04-09T02:19:35.737Z,77.78
2017-04-09T02:20:16.130Z,77.31
2017-04-09T02:20:56.598Z,77.69
2017-04-09T02:21:36.952Z,77.31
2017-04-09T02:22:17.427Z,77.69
2017-04-09T02:22:58.840Z,77.31
2017-04-09T02:23:39.308Z,77.5
2017-04-09T02:24:19.695Z,77.4
2017-04-09T02:25:00.132Z,77.4
2017-04-09T02:25:40.741Z,77.22
2017-04-09T02:26:21.234Z,77.22
2017-04-09T02:27:01.709Z,77.78
2017-04-09T02:27:42.754Z,77.69
2017-04-09T02:28:23.286Z,77.69
2017-04-09T02:29:03.703Z,77.78
2017-04-09T02:29:44.227Z,77.69
2017-04-09T02:30:24.724Z,77.59
2017-04-09T02:31:05.896Z,77.78
2017-04-09T02:31:46.234Z,77.88
2017-04-09T02:32:26.823Z,77.88
2017-04-09T02:33:07.282Z,78.16
2017-04-09T02:33:47.729Z,77.97
2017-04-09T02:34:28.307Z,78.16
2017-04-09T02:35:09.479Z,77.78
2017-04-09T02:35:49.950Z,77.78
2017-04-09T02:36:30.417Z,77.78
2017-04-09T02:37:10.830Z,77.88
2017-04-09T02:37:51.337Z,77.97
2017-04-09T02:38:31.786Z,77.97
2017-04-09T02:39:13.178Z,77.59
2017-04-09T02:39:53.586Z,77.78
2017-04-09T02:40:33.934Z,77.88
2017-04-09T02:41:14.398Z,78.45
2017-04-09T02:41:55.775Z,78.16
2017-04-09T02:42:36.930Z,77.97
2017-04-09T02:43:17.375Z,78.16
2017-04-09T02:43:57.819Z,78.45
2017-04-09T02:44:39.106Z,78.54
2017-04-09T02:45:19.596Z,78.35
2017-04-09T02:46:00.193Z,78.35
2017-04-09T02:46:40.639Z,78.45
2017-04-09T02:47:21.055Z,78.54
2017-04-09T02:48:01.490Z,77.97
2017-04-09T02:48:41.885Z,78.26
2017-04-09T02:49:22.694Z,78.26
2017-04-09T02:50:03.096Z,78.45
2017-04-09T02:50:43.476Z,78.45
2017-04-09T02:51:23.877Z,78.26
2017-04-09T02:52:04.688Z,77.88
2017-04-09T02:52:45.313Z,77.88
2017-04-09T02:53:26.120Z,77.88
2017-04-09T02:54:06.511Z,78.35
2017-04-09T02:54:46.943Z,78.35
2017-04-09T02:55:27.449Z,78.35
2017-04-09T02:56:07.913Z,78.35
2017-04-09T02:56:48.407Z,78.35
2017-04-09T02:57:28.899Z,79.11
2017-04-09T02:58:09.408Z,79.02
2017-04-09T02:58:50.830Z,78.83
2017-04-09T02:59:31.770Z,78.83
2017-04-09T03:00:12.256Z,78.83
2017-04-09T03:00:52.778Z,78.64
2017-04-09T03:01:33.217Z,79.02
2017-04-09T03:02:13.703Z,78.26
2017-04-09T03:02:54.078Z,78.26
2017-04-09T03:03:35.549Z,78.35
2017-04-09T03:04:15.966Z,78.35
2017-04-09T03:04:57.167Z,77.88
2017-04-09T03:05:37.543Z,77.88
2017-04-09T03:06:18.098Z,78.26
2017-04-09T03:06:58.507Z,78.26
2017-04-09T03:07:38.960Z,78.07
2017-04-09T03:08:19.446Z,78.26
2017-04-09T03:08:59.960Z,78.54
2017-04-09T03:09:40.566Z,78.26
2017-04-09T03:10:21.050Z,78.35
2017-04-09T03:11:01.375Z,79.02
2017-04-09T03:11:41.856Z,78.26
2017-04-09T03:12:22.431Z,78.54
2017-04-09T03:13:03.201Z,78.26
2017-04-09T03:13:43.716Z,78.54
2017-04-09T03:14:24.082Z,78.64
2017-04-09T03:15:04.505Z,78.54
2017-04-09T03:15:44.906Z,78.35
2017-04-09T03:16:25.357Z,78.45
2017-04-09T03:17:05.872Z,79.02
2017-04-09T03:17:46.228Z,79.21
2017-04-09T03:18:26.670Z,78.92
2017-04-09T03:19:07.085Z,78.92
2017-04-09T03:19:48.233Z,78.73
2017-04-09T03:20:28.705Z,78.64
2017-04-09T03:21:09.282Z,78.92
2017-04-09T03:21:49.761Z,78.92
2017-04-09T03:22:30.200Z,78.54
2017-04-09T03:23:10.714Z,78.26
2017-04-09T03:23:51.156Z,78.45
2017-04-09T03:24:31.614Z,78.26
2017-04-09T03:25:12.115Z,78.26
2017-04-09T03:25:52.523Z,78.35
2017-04-09T03:27:44.558Z,78.26
2017-04-09T03:28:33.034Z,78.16
2017-04-09T03:29:21.566Z,78.54
2017-04-09T03:30:10.666Z,78.35
2017-04-09T03:31:00.066Z,79.02
2017-04-09T03:31:48.768Z,78.92
2017-04-09T03:32:37.297Z,78.92
2017-04-09T03:33:25.385Z,78.73
2017-04-09T03:35:46.658Z,78.64
2017-04-09T03:36:35.501Z,78.92
2017-04-09T03:37:24.275Z,79.21
2017-04-09T03:38:12.494Z,78.92
2017-04-09T03:39:01.098Z,79.21
2017-04-09T03:39:50.429Z,78.64
2017-04-09T03:40:38.452Z,78.92
2017-04-09T03:41:27.466Z,78.83
2017-04-09T03:42:15.484Z,78.64
2017-04-09T03:43:04.776Z,78.92
2017-04-09T03:43:53.079Z,78.92
2017-04-09T03:44:41.653Z,79.02
2017-04-09T03:45:30.481Z,78.92
2017-04-09T03:46:19.392Z,78.92
2017-04-09T03:47:07.602Z,78.92
2017-04-09T03:47:57.369Z,78.92
2017-04-09T03:48:45.369Z,79.11
2017-04-09T03:49:34.263Z,78.83
2017-04-09T03:50:22.952Z,79.11
2017-04-09T03:51:11.484Z,78.73
2017-04-09T03:52:00.531Z,79.21
2017-04-09T03:52:48.927Z,78.83
2017-04-09T03:53:37.571Z,79.21
2017-04-09T03:54:25.969Z,78.83
2017-04-09T03:55:14.758Z,79.02
2017-04-09T03:56:03.604Z,78.92
2017-04-09T03:56:52.064Z,78.92
2017-04-09T03:57:40.622Z,79.3
2017-04-09T03:58:29.799Z,79.02
2017-04-09T03:59:17.959Z,79.3
2017-04-09T04:00:06.616Z,79.11
2017-04-09T04:00:55.115Z,79.02
2017-04-09T04:01:43.966Z,79.58
2017-04-09T04:02:32.423Z,79.11
2017-04-09T04:03:21.067Z,79.39
2017-04-09T04:04:09.931Z,79.11
2017-04-09T04:04:58.858Z,79.49
2017-04-09T04:05:47.480Z,79.11
2017-04-09T04:06:35.878Z,79.11
2017-04-09T04:07:24.949Z,79.3
2017-04-09T04:08:13.199Z,79.11
2017-04-09T04:09:02.002Z,79.11
2017-04-09T04:09:50.800Z,79.21
2017-04-09T04:10:39.417Z,79.21
2017-04-09T04:11:28.055Z,79.39
2017-04-09T04:12:16.795Z,79.21
2017-04-09T04:13:05.079Z,79.02
2017-04-09T04:13:53.694Z,79.39
2017-04-09T04:14:42.286Z,79.49
2017-04-09T04:15:31.539Z,79.49
2017-04-09T04:16:19.953Z,79.11
2017-04-09T04:17:08.362Z,79.39
2017-04-09T04:17:57.267Z,79.58
2017-04-09T04:18:45.640Z,79.17
2017-04-09T04:19:34.394Z,79.36
2017-04-09T04:20:23.409Z,78.98
2017-04-09T04:21:12.277Z,78.98
2017-04-09T04:22:00.765Z,79.36
2017-04-09T04:22:49.199Z,79.07
2017-04-09T04:23:38.301Z,78.98
2017-04-09T04:24:26.694Z,78.79
2017-04-09T04:25:15.458Z,79.07
2017-04-09T04:26:04.020Z,79.17
2017-04-09T04:26:52.829Z,78.98
2017-04-09T04:27:41.359Z,79.26
2017-04-09T04:28:29.649Z,79.07
2017-04-09T04:29:18.442Z,78.98
2017-04-09T04:30:07.071Z,79.07
2017-04-09T04:30:55.993Z,79.07
2017-04-09T04:31:44.430Z,79.07
2017-04-09T04:32:33.315Z,79.26
2017-04-09T04:33:21.687Z,79.17
2017-04-09T04:34:10.487Z,78.98
2017-04-09T04:34:59.452Z,79.17
2017-04-09T04:35:47.639Z,79.17
2017-04-09T04:36:36.098Z,79.17
2017-04-09T04:37:25.349Z,79.26
2017-04-09T04:38:13.640Z,79.64
2017-04-09T04:39:02.512Z,79.45
2017-04-09T04:39:51.387Z,79.64
2017-04-09T04:40:39.690Z,79.93
2017-04-09T04:41:28.874Z,80.02
2017-04-09T04:42:17.134Z,79.74
2017-04-09T04:43:05.960Z,79.64
2017-04-09T04:43:54.776Z,79.64
2017-04-09T04:44:43.317Z,79.93
2017-04-09T04:45:31.941Z,79.17
2017-04-09T04:46:20.571Z,79.17
2017-04-09T04:47:08.964Z,79.74
2017-04-09T04:47:57.628Z,79.17
2017-04-09T04:48:46.364Z,79.83
2017-04-09T04:49:34.771Z,80.02
2017-04-09T04:50:23.563Z,80.02
2017-04-09T04:51:12.516Z,80.02
2017-04-09T04:52:00.577Z,79.83
2017-04-09T04:52:49.471Z,79.83
2017-04-09T04:53:37.984Z,80.02
2017-04-09T04:54:26.858Z,79.93
2017-04-09T04:55:15.075Z,80.02
2017-04-09T04:56:04.098Z,80.02
2017-04-09T04:56:52.438Z,79.83
2017-04-09T04:57:41.352Z,79.83
2017-04-09T04:58:29.531Z,79.83
2017-04-09T04:59:18.680Z,79.93
2017-04-09T05:00:06.808Z,79.74
2017-04-09T05:00:55.269Z,79.74
2017-04-09T05:01:43.972Z,80.02
2017-04-09T05:02:32.544Z,80.3
2017-04-09T05:03:21.069Z,80.58
2017-04-09T05:04:09.705Z,80.02
2017-04-09T05:04:58.379Z,80.02
2017-04-09T05:05:47.293Z,80.02
2017-04-09T05:06:35.930Z,80.3
2017-04-09T05:07:24.418Z,80.21
2017-04-09T05:08:13.382Z,80.11
2017-04-09T05:09:01.602Z,80.4
2017-04-09T05:09:50.676Z,80.21
2017-04-09T05:10:38.937Z,80.58
2017-04-09T05:11:28.053Z,80.4
2017-04-09T05:12:16.581Z,80.21
2017-04-09T05:13:05.380Z,80.3
2017-04-09T05:13:53.865Z,80.15
2017-04-09T05:14:42.277Z,80.44
2017-04-09T05:15:31.321Z,80.25
2017-04-09T05:16:20.351Z,79.87
2017-04-09T05:17:09.209Z,79.96
2017-04-09T05:17:57.441Z,80.15
2017-04-09T05:18:45.967Z,80.06
2017-04-09T05:19:34.640Z,80.15
2017-04-09T05:20:23.011Z,80.25
2017-04-09T05:21:11.997Z,80.72
2017-04-09T05:22:00.482Z,80.63
2017-04-09T05:22:49.409Z,80.91
2017-04-09T05:23:37.574Z,80.91
2017-04-09T05:24:26.184Z,80.82
2017-04-09T05:25:15.351Z,80.72
2017-04-09T05:26:03.662Z,80.63
2017-04-09T05:26:52.780Z,80.72
2017-04-09T05:27:41.183Z,80.72
2017-04-09T05:28:29.989Z,80.91
2017-04-09T05:29:18.462Z,80.44
2017-04-09T05:30:07.118Z,80.15
2017-04-09T05:30:55.651Z,80.15
2017-04-09T05:31:44.626Z,80.25
2017-04-09T05:32:33.044Z,80.06
2017-04-09T05:33:21.894Z,80.91
2017-04-09T05:34:10.282Z,80.72
2017-04-09T05:34:58.705Z,80.72
2017-04-09T05:35:47.530Z,80.91
2017-04-09T05:36:36.253Z,80.25
2017-04-09T05:37:24.657Z,80.34
2017-04-09T05:38:13.419Z,80.53
2017-04-09T05:39:02.085Z,80.25
2017-04-09T05:39:51.197Z,80.29
2017-04-09T05:40:39.881Z,80
2017-04-09T05:41:28.277Z,80.1
2017-04-09T05:42:16.691Z,80.1
2017-04-09T05:43:05.463Z,79.82
2017-04-09T05:43:54.509Z,79.63
2017-04-09T05:44:43.373Z,79.63
2017-04-09T05:45:31.756Z,79.63
2017-04-09T05:46:20.903Z,79.63
2017-04-09T05:47:09.567Z,79.91
2017-04-09T05:47:58.032Z,80.1
2017-04-09T05:48:46.886Z,80.1
2017-04-09T05:49:35.358Z,79.82
2017-04-09T05:50:25.663Z,79.82
2017-04-09T05:51:14.720Z,79.95
2017-04-09T05:52:03.409Z,79.85
2017-04-09T05:52:51.685Z,79.85
2017-04-09T05:53:40.779Z,80.14
2017-04-09T05:54:29.213Z,80.14
2017-04-09T05:55:18.119Z,80.24
2017-04-09T05:56:06.710Z,79.85
2017-04-09T05:56:55.102Z,80.14
2017-04-09T05:57:43.874Z,80.14
2017-04-09T05:58:41.627Z,80.18
2017-04-09T05:59:31.196Z,79.33
2017-04-09T06:00:19.437Z,79.42
2017-04-09T06:01:07.887Z,79.33
2017-04-09T06:01:56.880Z,79.42
2017-04-09T06:03:47.584Z,79.36
2017-04-09T06:04:36.123Z,79.27
2017-04-09T06:05:24.944Z,79.27
2017-04-09T06:06:13.762Z,79.46
2017-04-09T06:07:02.387Z,79.36
2017-04-09T06:07:51.096Z,79.46
2017-04-09T06:08:40.012Z,79.27
2017-04-09T06:09:28.799Z,79.41
2017-04-09T06:10:17.109Z,79.12
2017-04-09T06:11:05.876Z,79.41
2017-04-09T06:11:54.206Z,79.12
2017-04-09T06:12:42.936Z,79.03
2017-04-09T06:13:31.676Z,78.64
2017-04-09T06:14:20.234Z,78.97
2017-04-09T06:15:09.485Z,78.5
2017-04-09T06:15:57.632Z,78.5
2017-04-09T06:16:46.499Z,78.4
2017-04-09T06:17:34.779Z,78.21
2017-04-09T06:18:23.699Z,78.5
2017-04-09T06:19:12.583Z,77.92
2017-04-09T06:20:00.521Z,78.25
2017-04-09T06:20:49.997Z,77.87
2017-04-09T06:21:38.669Z,77.68
2017-04-09T06:22:26.724Z,77.97
2017-04-09T06:23:15.566Z,77.77
2017-04-09T06:24:04.188Z,77.87
2017-04-09T06:24:53.259Z,78.06
2017-04-09T06:25:41.502Z,77.3
2017-04-09T06:26:30.458Z,77.24
2017-04-09T06:27:18.953Z,77.15
2017-04-09T06:28:07.662Z,77.43
2017-04-09T06:28:56.120Z,77.24
2017-04-09T06:29:44.607Z,77.15
2017-04-09T06:30:33.237Z,76.86
2017-04-09T06:31:22.113Z,77
2017-04-09T06:32:10.686Z,76.52
2017-04-09T06:32:59.230Z,76.42
2017-04-09T06:33:48.133Z,76.33
2017-04-09T06:34:36.540Z,76.42
2017-04-09T06:35:25.390Z,76.33
2017-04-09T06:36:13.810Z,76.08
2017-04-09T06:37:02.635Z,75.89
2017-04-09T06:37:51.535Z,76.18
2017-04-09T06:38:40.149Z,75.99
2017-04-09T06:39:28.282Z,75.51
2017-04-09T06:40:17.184Z,75.7
2017-04-09T06:41:05.882Z,75.26
2017-04-09T06:41:53.962Z,75.07
2017-04-09T06:42:42.970Z,75.16
2017-04-09T06:43:31.105Z,74.79
2017-04-09T06:44:19.546Z,74.5
2017-04-09T06:45:07.139Z,74.63
2017-04-09T06:45:56.029Z,74.73
2017-04-09T06:46:44.230Z,74.44
2017-04-09T06:47:33.022Z,74.44
2017-04-09T06:48:21.352Z,74.63
2017-04-09T06:49:10.492Z,74.35
2017-04-09T06:49:58.714Z,74.25
2017-04-09T06:50:47.160Z,74.25
2017-04-09T06:51:35.665Z,74.38
2017-04-09T06:52:24.285Z,74.57
2017-04-09T06:53:13.413Z,73.62
2017-04-09T06:54:01.761Z,73.91
2017-04-09T06:54:50.305Z,73.91
2017-04-09T06:55:39.043Z,73.91
2017-04-09T06:56:27.809Z,74.1
2017-04-09T06:57:16.456Z,73.91
2017-04-09T06:58:04.574Z,73.33
2017-04-09T06:58:52.963Z,73.33
2017-04-09T06:59:32.986Z,73.56
2017-04-09T07:00:16.196Z,73.66
2017-04-09T07:00:57.158Z,73.37
2017-04-09T07:01:37.613Z,73.28
2017-04-09T07:02:17.976Z,73.37
2017-04-09T07:02:58.480Z,73.08
2017-04-09T07:03:38.862Z,72.71
2017-04-09T07:04:19.268Z,72.89
2017-04-09T07:05:00.622Z,72.83
2017-04-09T07:05:41.164Z,72.55
2017-04-09T07:06:21.605Z,72.17
2017-04-09T07:07:02.063Z,71.88
2017-04-09T07:07:42.395Z,71.88
2017-04-09T07:08:22.845Z,71.98
2017-04-09T07:09:03.211Z,72.26
2017-04-09T07:09:43.652Z,71.69
2017-04-09T07:10:24.069Z,71.69
2017-04-09T07:11:04.433Z,71.53
2017-04-09T07:11:44.913Z,71.53
2017-04-09T07:12:26.198Z,71.15
2017-04-09T07:13:06.572Z,71.06
2017-04-09T07:13:46.961Z,70.39
2017-04-09T07:14:27.411Z,70.77
2017-04-09T07:15:07.825Z,70.77
2017-04-09T07:15:48.200Z,70.2
2017-04-09T07:16:28.680Z,70.29
2017-04-09T07:17:09.091Z,70.14
2017-04-09T07:17:49.490Z,69.95
2017-04-09T07:18:29.899Z,69.85
2017-04-09T07:19:10.354Z,69.47
2017-04-09T07:19:50.715Z,69.27
2017-04-09T07:22:12.121Z,68.51
2017-04-09T07:23:00.886Z,68.13
2017-04-09T07:25:20.813Z,68.26
2017-04-09T07:27:12.306Z,67.49
2017-04-09T07:28:00.723Z,67.4
2017-04-09T07:28:48.821Z,67.49
2017-04-09T07:29:35.731Z,67.21
2017-04-09T07:30:19.979Z,67.21
2017-04-09T07:31:00.420Z,66.96
2017-04-09T07:31:40.883Z,67.34
2017-04-09T07:32:21.222Z,66.96
2017-04-09T07:33:01.666Z,66.76
2017-04-09T07:33:42.062Z,66.38
2017-04-09T07:34:22.519Z,66.47
2017-04-09T07:35:02.931Z,66.57
2017-04-09T07:35:43.340Z,66.8
2017-04-09T07:36:23.696Z,66.03
2017-04-09T07:37:04.135Z,66.32
2017-04-09T07:37:44.545Z,66.32
2017-04-09T07:38:24.946Z,65.94
2017-04-09T07:39:05.406Z,65.74
2017-04-09T07:39:45.786Z,65.17
2017-04-09T07:40:26.183Z,64.92
2017-04-09T07:41:06.584Z,65.2
2017-04-09T07:41:46.977Z,64.72
2017-04-09T07:42:27.395Z,64.15
2017-04-09T07:43:07.764Z,64.05
2017-04-09T07:43:48.213Z,64.25
2017-04-09T07:44:28.625Z,64.05
2017-04-09T07:45:09.059Z,63.76
2017-04-09T07:45:49.453Z,63.48
2017-04-09T07:46:29.905Z,63.19
2017-04-09T07:47:10.326Z,62.9
2017-04-09T07:47:50.772Z,63.48
2017-04-09T07:48:31.191Z,63
2017-04-09T07:49:11.602Z,63
2017-04-09T07:49:52.015Z,62.9
2017-04-09T07:50:32.423Z,62.93
2017-04-09T07:51:13.022Z,62.93
2017-04-09T07:51:53.446Z,62.36
2017-04-09T07:52:33.838Z,62.26
2017-04-09T07:53:14.225Z,62.2
2017-04-09T07:53:54.650Z,62.59
2017-04-09T07:54:35.119Z,62.87
2017-04-09T07:55:15.489Z,63.86
2017-04-09T07:55:55.897Z,65.01
2017-04-09T07:56:36.311Z,65.23
2017-04-09T07:57:16.750Z,65.2
2017-04-09T07:57:57.159Z,63.73
2017-04-09T07:58:37.631Z,62.71
2017-04-09T07:59:18.036Z,61.22
2017-04-09T07:59:58.512Z,59.27
2017-04-09T08:00:39.188Z,57.59
2017-04-09T08:01:19.702Z,55.33
2017-04-09T08:02:00.136Z,53.45
2017-04-09T08:02:40.481Z,51.95
2017-04-09T08:03:20.910Z,50.94
2017-04-09T08:04:01.362Z,48.95
2017-04-09T08:04:41.753Z,47.25
2017-04-09T08:05:22.439Z,46.21
2017-04-09T08:06:03.078Z,44.89
2017-04-09T08:06:43.257Z,44.06
2017-04-09T08:07:23.682Z,42.82
2017-04-09T08:08:04.050Z,42.28
2017-04-09T08:08:44.492Z,40.55
2017-04-09T08:09:24.936Z,39.49
2017-04-09T08:10:05.344Z,39.12
2017-04-09T08:10:45.751Z,37.77
2017-04-09T08:11:26.188Z,36.72
2017-04-09T08:12:06.916Z,36.34
2017-04-09T08:12:48.120Z,36.07
2017-04-09T08:13:28.985Z,35.6
2017-04-09T08:14:09.410Z,34.83
2017-04-09T08:14:50.132Z,33.67
2017-04-09T08:15:31.909Z,32.2
2017-04-09T08:16:12.574Z,30.94
2017-04-09T08:16:53.291Z,29.58
2017-04-09T08:17:33.933Z,29.17
2017-04-09T08:18:15.193Z,29.17
2017-04-09T08:18:56.343Z,28.68
2017-04-09T08:19:36.797Z,28
2017-04-09T08:20:17.213Z,27.52
2017-04-09T08:20:58.105Z,27.42
2017-04-09T08:21:38.625Z,27.12
2017-04-09T08:22:19.020Z,26.95
2017-04-09T08:22:59.661Z,26.26
2017-04-09T08:23:40.079Z,26.45
2017-04-09T08:24:20.446Z,26.27
2017-04-09T08:25:00.851Z,25.89
2017-04-09T08:25:41.549Z,25.61
2017-04-09T08:26:21.963Z,25.62
2017-04-09T08:27:02.493Z,25.04
2017-04-09T08:27:42.878Z,24.68
2017-04-09T08:28:23.310Z,24.29
2017-04-09T08:29:04.616Z,23.8
2017-04-09T08:29:44.684Z,23.72
2017-04-09T08:30:25.893Z,23.43
2017-04-09T08:31:06.368Z,22.05
2017-04-09T08:31:46.745Z,21.46
2017-04-09T08:32:27.235Z,21.28
2017-04-09T08:33:07.599Z,21.08
2017-04-09T08:33:48.233Z,20.88
2017-04-09T08:34:28.590Z,20.89
2017-04-09T08:35:09.103Z,20.61
2017-04-09T08:35:49.602Z,20.62
2017-04-09T08:36:29.913Z,20.32
2017-04-09T08:37:10.809Z,20.03
2017-04-09T08:37:51.409Z,19.34
2017-04-09T08:38:31.950Z,19.15
2017-04-09T08:39:12.367Z,18.66
2017-04-09T08:39:52.951Z,18.46
2017-04-09T08:40:33.476Z,18.46
2017-04-09T08:41:13.890Z,18.37
2017-04-09T08:41:54.279Z,17.68
2017-04-09T08:44:12.829Z,17.19
2017-04-09T08:44:55.682Z,17.09
2017-04-09T08:45:36.568Z,17.18
2017-04-09T08:46:16.978Z,16.89
2017-04-09T08:46:57.795Z,16.99
2017-04-09T08:47:38.600Z,16.6
2017-04-09T08:48:18.995Z,16.41
2017-04-09T08:49:00.626Z,16.41
2017-04-09T08:49:40.980Z,16.22
2017-04-09T08:50:21.420Z,15.94
2017-04-09T08:51:01.971Z,15.64
2017-04-09T08:51:42.444Z,15.35
2017-04-09T08:52:23.053Z,15.45
2017-04-09T08:53:03.432Z,15.16
2017-04-09T08:53:44.032Z,15.06
2017-04-09T08:54:24.348Z,14.56
2017-04-09T08:55:04.767Z,14.57
2017-04-09T08:55:45.445Z,14.37
2017-04-09T08:56:26.221Z,14.27
2017-04-09T08:57:06.637Z,14.17
2017-04-09T08:57:47.042Z,14.28
2017-04-09T08:58:27.487Z,14.48
2017-04-09T08:59:08.622Z,14.29
2017-04-09T08:59:49.013Z,13.6
2017-04-09T09:00:29.458Z,13.3
2017-04-09T09:01:09.982Z,13.6
2017-04-09T09:01:50.410Z,13.11
2017-04-09T09:02:30.843Z,13.01
2017-04-09T09:03:11.242Z,13.11
2017-04-09T09:03:51.664Z,13.01
2017-04-09T09:04:32.094Z,12.82
2017-04-09T09:05:12.514Z,12.62
2017-04-09T09:05:52.943Z,12.73
2017-04-09T09:06:33.402Z,12.73
2017-04-09T09:07:14.339Z,12.63
2017-04-09T09:07:54.752Z,12.43
2017-04-09T09:08:35.249Z,11.84
2017-04-09T09:09:15.646Z,11.54
2017-04-09T09:09:56.058Z,11.15
2017-04-09T09:10:36.493Z,10.84
2017-04-09T09:11:17.087Z,11.04
2017-04-09T09:11:57.530Z,11.04
2017-04-09T09:12:37.951Z,11.04
2017-04-09T09:13:18.502Z,11.04
2017-04-09T09:13:58.784Z,10.94
2017-04-09T09:14:39.738Z,11.24
2017-04-09T09:15:20.045Z,11.04
2017-04-09T09:16:01.621Z,10.64
2017-04-09T09:16:42.054Z,10.35
2017-04-09T09:17:22.508Z,10.15
2017-04-09T09:18:03.471Z,9.45
2017-04-09T09:18:43.796Z,9.14
2017-04-09T09:19:24.289Z,9.14
2017-04-09T09:20:04.653Z,9.33
2017-04-09T09:20:45.078Z,9.03
2017-04-09T09:21:25.616Z,9.33
2017-04-09T09:22:05.890Z,9.72
2017-04-09T09:22:46.406Z,9.82
2017-04-09T09:23:26.765Z,10.52
2017-04-09T09:24:07.247Z,10.13
2017-04-09T09:24:47.684Z,10.23
2017-04-09T09:25:28.144Z,10.43
2017-04-09T09:26:08.606Z,9.84
2017-04-09T09:26:49.007Z,9.64
2017-04-09T09:27:29.418Z,9.55
2017-04-09T09:28:09.860Z,9.55
2017-04-09T09:28:50.231Z,9.05
2017-04-09T09:29:30.667Z,9.16
2017-04-09T09:30:11.121Z,9.16
2017-04-09T09:30:51.525Z,9.16
2017-04-09T09:31:32.008Z,9.06
2017-04-09T09:32:12.390Z,8.86
2017-04-09T09:32:52.861Z,8.56
2017-04-09T09:33:33.314Z,8.56
2017-04-09T09:34:13.745Z,8.76
2017-04-09T09:34:54.197Z,8.56
2017-04-09T09:35:34.672Z,8.17